San Fernando City, La Union Weather

 Home     Webcam     Satellite     Graphs     Full Site     Webcam Slideshow     Satellite Slideshow     Earthquakes     METAR     Tides   

RPLC - Angeles/Pampanga, Philippines
Distance from station: S 166km
Updated: Fri, 16-Apr-2021 12:00am PST
Mostly cloudy
Mostly cloudy
 Wind from NE
Wind: NE 7 km/h
Temperature: 27°C
Heat Index: 31°C
Dew Point: 24°C
Humidity: 84%
Barometer: 1012 hPa
Clouds: Mostly cloudy
Visibility: 8 km
Cloud details: Partly cloudy 610 m
Mostly cloudy 3048 m
2021/04/15 16:00 RPLC 151600Z 04004KT 8000 SCT020 BKN100 27/24 Q1012 NOSIG RMK A2988
 
RPLI - Laoag Intl Airport, Philippines
Distance from station: N 171km
Updated: Thu, 15-Apr-2021 11:00pm PST
NOT Current
Partly cloudy
Partly cloudy
 Wind from varies
Wind: varies 4 km/h
Temperature: 26°C
Dew Point: 24°C
Humidity: 89%
Barometer: 1011 hPa
Clouds: Partly cloudy
Visibility: 10 km
Cloud details: Few Clouds 549 m
Partly cloudy 8839 m
2021/04/15 15:00 RPLI 151500Z VRB02KT 9999 FEW018 SCT290 26/24 Q1011 NOSIG RMK A2985
 
RPLB - Olongapo/Subic, Philippines
Distance from station: S 205km
Updated: Fri, 16-Apr-2021 12:00am PST
Mostly cloudy
Mostly cloudy
 Wind from NNE
Wind: NNE 4 km/h
Temperature: 27°C
Heat Index: 31°C
Dew Point: 25°C
Humidity: 89%
Barometer: 1011 hPa
Clouds: Mostly cloudy
Visibility: 10 km
Cloud details: Partly cloudy 610 m
Mostly cloudy 9144 m
2021/04/15 16:00 RPLB 151600Z 03002KT 9999 SCT020 BKN300 27/25 Q1011 NOSIG RMK A2985
 
RPLL - Ninoy Aquino Intl Airport, Philippines
Distance from station: SSE 247km
Updated: Fri, 16-Apr-2021 12:00am PST
Few Clouds
Few Clouds
 Wind from ESE
Wind: ESE 6 km/h
Temperature: 28°C
Heat Index: 31°C
Dew Point: 23°C
Humidity: 74%
Barometer: 1011 hPa
Clouds: Few Clouds
Visibility: 10 km
Cloud details: Few Clouds 762 m
2021/04/15 16:00 RPLL 151600Z 11003KT 060V150 9999 FEW025 28/23 Q1011 NOSIG RMK A2985